createdAt,value
2022-10-03T00:00:24.140Z,2.50
2022-10-03T00:01:24.174Z,3.00
2022-10-03T00:02:24.152Z,2.50
2022-10-03T00:03:24.091Z,3.20
2022-10-03T00:04:24.100Z,3.00
2022-10-03T00:05:24.068Z,3.40
2022-10-03T00:06:24.074Z,2.90
2022-10-03T00:07:24.615Z,3.20
2022-10-03T00:08:24.028Z,2.80
2022-10-03T00:09:24.019Z,2.80
2022-10-03T00:10:24.011Z,3.30
2022-10-03T00:11:24.042Z,3.10
2022-10-03T00:12:23.992Z,2.90
2022-10-03T00:13:24.609Z,2.90
2022-10-03T00:14:23.956Z,3.10
2022-10-03T00:15:23.963Z,2.70
2022-10-03T00:16:23.995Z,2.30
2022-10-03T00:17:23.922Z,3.20
2022-10-03T00:18:23.914Z,3.00
2022-10-03T00:19:23.906Z,2.70
2022-10-03T00:20:23.898Z,2.80
2022-10-03T00:21:23.894Z,3.00
2022-10-03T00:22:23.908Z,3.00
2022-10-03T00:23:23.864Z,3.50
2022-10-03T00:24:24.632Z,3.30
2022-10-03T00:25:23.833Z,3.10
2022-10-03T00:26:23.843Z,3.00
2022-10-03T00:27:23.937Z,3.20
2022-10-03T00:28:23.921Z,3.00
2022-10-03T00:29:23.787Z,2.70
2022-10-03T00:30:23.784Z,3.10
2022-10-03T00:31:23.850Z,3.00
2022-10-03T00:32:24.644Z,3.10
2022-10-03T00:33:23.752Z,3.40
2022-10-03T00:34:23.744Z,3.20
2022-10-03T00:35:23.725Z,2.90
2022-10-03T00:36:23.711Z,3.60
2022-10-03T00:37:23.729Z,2.50
2022-10-03T00:38:23.689Z,2.60
2022-10-03T00:39:23.696Z,3.00
2022-10-03T00:40:23.661Z,3.10
2022-10-03T00:41:24.625Z,3.20
2022-10-03T00:42:23.648Z,2.80
2022-10-03T00:43:23.646Z,2.90
2022-10-03T00:44:23.627Z,2.90
2022-10-03T00:45:23.612Z,2.40
2022-10-03T00:46:23.649Z,3.10
2022-10-03T00:47:23.585Z,3.20
2022-10-03T00:48:23.581Z,3.30
2022-10-03T00:49:23.589Z,2.90
2022-10-03T00:50:23.553Z,3.10
2022-10-03T00:51:23.557Z,2.90
2022-10-03T00:52:23.536Z,3.40
2022-10-03T00:53:23.528Z,3.50
2022-10-03T00:54:23.505Z,3.30
2022-10-03T00:55:23.494Z,3.50
2022-10-03T00:56:23.490Z,3.20
2022-10-03T00:57:23.470Z,2.80
2022-10-03T00:58:23.456Z,3.30
2022-10-03T00:59:23.562Z,3.10
2022-10-03T01:00:23.454Z,3.20
2022-10-03T01:01:23.476Z,3.20
2022-10-03T01:02:23.525Z,3.20
2022-10-03T01:03:23.412Z,3.20
2022-10-03T01:04:23.383Z,3.80
2022-10-03T01:05:23.393Z,3.80
2022-10-03T01:06:23.379Z,3.10
2022-10-03T01:07:23.362Z,2.80
2022-10-03T01:08:23.389Z,3.50
2022-10-03T01:09:23.352Z,3.60
2022-10-03T01:10:23.327Z,3.60
2022-10-03T01:11:23.303Z,3.70
2022-10-03T01:12:23.307Z,3.00
2022-10-03T01:13:23.295Z,3.10
2022-10-03T01:14:23.308Z,3.30
2022-10-03T01:15:23.291Z,3.30
2022-10-03T01:16:23.303Z,2.90
2022-10-03T01:17:23.245Z,3.00
2022-10-03T01:18:23.224Z,3.10
2022-10-03T01:19:23.227Z,3.10
2022-10-03T01:20:23.222Z,2.90
2022-10-03T01:21:23.200Z,3.30
2022-10-03T01:22:23.186Z,3.40
2022-10-03T01:23:23.170Z,3.30
2022-10-03T01:24:23.170Z,3.50
2022-10-03T01:25:23.155Z,3.20
2022-10-03T01:26:23.146Z,3.80
2022-10-03T01:27:24.111Z,2.90
2022-10-03T01:28:23.268Z,3.00
2022-10-03T01:29:23.099Z,3.10
2022-10-03T01:30:23.107Z,3.50
2022-10-03T01:31:23.152Z,3.20
2022-10-03T01:32:23.073Z,2.30
2022-10-03T01:33:23.080Z,2.70
2022-10-03T01:34:23.070Z,2.60
2022-10-03T01:35:23.056Z,3.30
2022-10-03T01:36:23.036Z,3.30
2022-10-03T01:37:23.034Z,2.30
2022-10-03T01:38:23.013Z,3.00
2022-10-03T01:39:22.994Z,2.70
2022-10-03T01:40:23.626Z,2.80
2022-10-03T01:41:22.972Z,3.30
2022-10-03T01:42:22.966Z,2.50
2022-10-03T01:43:22.954Z,2.80
2022-10-03T01:44:22.939Z,3.20
2022-10-03T01:45:22.950Z,2.90
2022-10-03T01:46:22.982Z,2.70
2022-10-03T01:47:22.921Z,3.00
2022-10-03T01:48:22.909Z,2.50
2022-10-03T01:49:22.875Z,3.00
2022-10-03T01:50:22.868Z,3.00
2022-10-03T01:51:22.855Z,2.50
2022-10-03T01:52:22.842Z,3.30
2022-10-03T01:53:22.850Z,3.60
2022-10-03T01:54:22.822Z,2.80
2022-10-03T01:55:22.805Z,2.50
2022-10-03T01:56:22.798Z,2.80
2022-10-03T01:57:23.603Z,2.90
2022-10-03T01:58:23.621Z,2.80
2022-10-03T01:59:22.791Z,2.70
2022-10-03T02:00:22.752Z,2.90
2022-10-03T02:01:22.751Z,3.40
2022-10-03T02:02:24.695Z,2.60
2022-10-03T02:03:22.845Z,2.70
2022-10-03T02:04:22.705Z,3.70
2022-10-03T02:05:23.129Z,2.50
2022-10-03T02:06:22.703Z,3.00
2022-10-03T02:07:23.610Z,2.80
2022-10-03T02:08:22.663Z,3.10
2022-10-03T02:09:22.650Z,2.70
2022-10-03T02:10:22.681Z,2.80
2022-10-03T02:11:22.645Z,2.60
2022-10-03T02:12:22.631Z,3.10
2022-10-03T02:13:22.604Z,3.20
2022-10-03T02:14:22.604Z,3.00
2022-10-03T02:15:22.605Z,2.60
2022-10-03T02:16:22.709Z,2.70
2022-10-03T02:17:22.562Z,2.90
2022-10-03T02:18:22.568Z,2.50
2022-10-03T02:19:22.606Z,3.00
2022-10-03T02:20:22.526Z,3.20
2022-10-03T02:21:22.527Z,3.20
2022-10-03T02:22:22.508Z,2.70
2022-10-03T02:23:22.499Z,2.90
2022-10-03T02:24:23.114Z,2.70
2022-10-03T02:25:22.505Z,2.90
2022-10-03T02:26:23.148Z,3.50
2022-10-03T02:27:22.462Z,4.10
2022-10-03T02:28:23.265Z,3.30
2022-10-03T02:29:22.448Z,3.10
2022-10-03T02:30:22.438Z,2.70
2022-10-03T02:31:22.474Z,3.70
2022-10-03T02:32:23.129Z,3.60
2022-10-03T02:33:22.382Z,3.70
2022-10-03T02:34:22.371Z,3.50
2022-10-03T02:35:22.391Z,3.30
2022-10-03T02:36:22.358Z,3.00
2022-10-03T02:37:22.349Z,3.60
2022-10-03T02:38:22.334Z,3.60
2022-10-03T02:39:22.325Z,3.90
2022-10-03T02:40:22.300Z,3.00
2022-10-03T02:41:22.298Z,3.70
2022-10-03T02:42:22.281Z,3.20
2022-10-03T02:43:23.113Z,3.80
2022-10-03T02:44:22.270Z,4.10
2022-10-03T02:45:24.178Z,3.50
2022-10-03T02:46:22.236Z,3.70
2022-10-03T02:47:22.231Z,3.80
2022-10-03T02:48:37.137Z,3.30
2022-10-03T02:49:23.208Z,3.80
2022-10-03T02:50:23.107Z,3.50
2022-10-03T02:51:22.221Z,4.00
2022-10-03T02:52:22.200Z,3.30
2022-10-03T02:53:23.115Z,2.70
2022-10-03T02:54:22.153Z,3.50
2022-10-03T02:55:22.152Z,3.70
2022-10-03T02:56:22.131Z,4.00
2022-10-03T02:57:22.128Z,3.70
2022-10-03T02:58:22.131Z,3.10
2022-10-03T02:59:22.099Z,3.30
2022-10-03T03:00:22.094Z,3.70
2022-10-03T03:01:22.138Z,3.60
2022-10-03T03:02:22.129Z,3.50
2022-10-03T03:03:22.052Z,3.30
2022-10-03T03:04:22.053Z,3.10
2022-10-03T03:05:22.024Z,3.10
2022-10-03T03:06:22.605Z,4.10
2022-10-03T03:07:22.029Z,3.70
2022-10-03T03:08:22.615Z,3.20
2022-10-03T03:09:21.977Z,3.50
2022-10-03T03:10:21.979Z,4.10
2022-10-03T03:11:21.960Z,3.60
2022-10-03T03:12:23.624Z,3.50
2022-10-03T03:13:21.945Z,3.50
2022-10-03T03:14:21.929Z,3.70
2022-10-03T03:15:21.918Z,4.00
2022-10-03T03:16:21.956Z,4.10
2022-10-03T03:17:22.622Z,3.20
2022-10-03T03:18:21.881Z,3.60
2022-10-03T03:19:21.884Z,3.30
2022-10-03T03:20:21.856Z,3.90
2022-10-03T03:21:21.870Z,3.90
2022-10-03T03:22:21.834Z,4.60
2022-10-03T03:23:21.866Z,4.20
2022-10-03T03:24:21.811Z,3.30
2022-10-03T03:25:21.812Z,3.80
2022-10-03T03:26:21.803Z,3.20
2022-10-03T03:27:21.774Z,3.60
2022-10-03T03:28:23.657Z,3.20
2022-10-03T03:29:21.775Z,4.10
2022-10-03T03:30:21.779Z,3.00
2022-10-03T03:31:21.764Z,3.20
2022-10-03T03:32:21.730Z,3.00
2022-10-03T03:33:21.706Z,3.30
2022-10-03T03:34:21.715Z,3.00
2022-10-03T03:35:22.614Z,3.00
2022-10-03T03:36:21.671Z,3.40
2022-10-03T03:37:21.661Z,3.40
2022-10-03T03:38:21.657Z,3.00
2022-10-03T03:39:21.692Z,3.50
2022-10-03T03:40:21.649Z,3.10
2022-10-03T03:41:21.625Z,3.30
2022-10-03T03:42:21.638Z,3.10
2022-10-03T03:43:21.602Z,3.40
2022-10-03T03:44:21.589Z,3.10
2022-10-03T03:45:21.664Z,2.90
2022-10-03T03:46:21.588Z,3.30
2022-10-03T03:47:22.108Z,3.10
2022-10-03T03:48:21.567Z,2.50
2022-10-03T03:49:22.122Z,3.10
2022-10-03T03:50:21.521Z,2.90
2022-10-03T03:51:21.569Z,3.20
2022-10-03T03:52:21.581Z,3.20
2022-10-03T03:53:21.487Z,2.70
2022-10-03T03:54:21.482Z,3.10
2022-10-03T03:55:21.487Z,3.00
2022-10-03T03:56:21.453Z,2.90
2022-10-03T03:57:21.434Z,2.90
2022-10-03T03:58:21.441Z,2.90
2022-10-03T03:59:21.418Z,3.10
2022-10-03T04:00:21.439Z,2.70
2022-10-03T04:01:21.493Z,3.20
2022-10-03T04:02:21.462Z,2.80
2022-10-03T04:03:21.372Z,2.50
2022-10-03T04:04:21.361Z,2.90
2022-10-03T04:05:21.356Z,3.00
2022-10-03T04:06:21.379Z,2.70
2022-10-03T04:07:22.048Z,2.30
2022-10-03T04:08:21.322Z,3.10
2022-10-03T04:09:21.312Z,3.60
2022-10-03T04:10:22.111Z,2.60
2022-10-03T04:11:21.318Z,2.90
2022-10-03T04:12:21.267Z,2.70
2022-10-03T04:13:21.268Z,2.60
2022-10-03T04:14:21.259Z,2.60
2022-10-03T04:15:22.106Z,2.70
2022-10-03T04:16:22.148Z,2.70
2022-10-03T04:17:21.232Z,2.90
2022-10-03T04:18:22.123Z,2.40
2022-10-03T04:19:21.233Z,2.90
2022-10-03T04:20:21.174Z,2.70
2022-10-03T04:21:21.169Z,3.10
2022-10-03T04:22:21.155Z,2.80
2022-10-03T04:23:21.156Z,2.40
2022-10-03T04:24:21.139Z,2.60
2022-10-03T04:25:21.134Z,2.70
2022-10-03T04:26:21.138Z,2.70
2022-10-03T04:27:21.134Z,2.70
2022-10-03T04:28:21.134Z,2.60
2022-10-03T04:29:21.612Z,2.70
2022-10-03T04:30:21.086Z,2.60
2022-10-03T04:31:21.641Z,2.40
2022-10-03T04:32:21.047Z,2.30
2022-10-03T04:33:21.048Z,3.00
2022-10-03T04:34:21.016Z,2.50
2022-10-03T04:35:21.015Z,2.80
2022-10-03T04:36:21.001Z,2.60
2022-10-03T04:37:20.981Z,2.40
2022-10-03T04:38:20.975Z,2.80
2022-10-03T04:39:20.987Z,3.00
2022-10-03T04:40:20.954Z,2.80
2022-10-03T04:41:20.954Z,2.40
2022-10-03T04:42:20.936Z,2.70
2022-10-03T04:43:20.958Z,2.70
2022-10-03T04:44:20.934Z,2.40
2022-10-03T04:45:20.905Z,2.50
2022-10-03T04:46:20.937Z,2.60
2022-10-03T04:47:20.889Z,2.40
2022-10-03T04:48:21.612Z,2.20
2022-10-03T04:49:20.848Z,2.50
2022-10-03T04:50:20.839Z,2.40
2022-10-03T04:51:20.824Z,2.60
2022-10-03T04:52:20.835Z,2.30
2022-10-03T04:53:20.815Z,2.00
2022-10-03T04:54:20.800Z,2.30
2022-10-03T04:55:20.835Z,2.80
2022-10-03T04:56:20.777Z,2.20
2022-10-03T04:57:20.764Z,2.20
2022-10-03T04:58:20.757Z,2.10
2022-10-03T04:59:20.761Z,2.40
2022-10-03T05:00:20.743Z,2.20
2022-10-03T05:01:20.822Z,2.00
2022-10-03T05:02:20.880Z,2.30
2022-10-03T05:03:21.614Z,2.00
2022-10-03T05:04:20.688Z,2.30
2022-10-03T05:05:20.686Z,1.90
2022-10-03T05:06:21.630Z,1.70
2022-10-03T05:07:20.664Z,2.10
2022-10-03T05:08:20.683Z,2.20
2022-10-03T05:09:20.632Z,1.70
2022-10-03T05:10:20.636Z,2.10
2022-10-03T05:11:20.641Z,2.20
2022-10-03T05:12:20.602Z,2.30
2022-10-03T05:13:20.582Z,2.70
2022-10-03T05:14:20.592Z,2.20
2022-10-03T05:15:20.668Z,2.30
2022-10-03T05:16:20.645Z,2.00
2022-10-03T05:17:20.572Z,2.40
2022-10-03T05:18:24.644Z,2.10
2022-10-03T05:19:21.523Z,2.40
2022-10-03T05:20:21.118Z,2.60
2022-10-03T05:21:20.506Z,2.40
2022-10-03T05:22:20.501Z,2.60
2022-10-03T05:23:21.133Z,2.60
2022-10-03T05:24:20.477Z,2.60
2022-10-03T05:25:20.487Z,2.50
2022-10-03T05:26:44.186Z,2.80
2022-10-03T05:27:21.478Z,2.40
2022-10-03T05:28:20.548Z,2.30
2022-10-03T05:29:20.422Z,2.30
2022-10-03T05:30:20.417Z,2.40
2022-10-03T05:31:20.512Z,2.50
2022-10-03T05:32:20.378Z,2.10
2022-10-03T05:33:20.348Z,1.80
2022-10-03T05:34:20.373Z,2.00
2022-10-03T05:35:20.367Z,2.30
2022-10-03T05:36:20.329Z,2.20
2022-10-03T05:37:20.316Z,2.20
2022-10-03T05:38:20.292Z,2.10
2022-10-03T05:39:20.331Z,1.90
2022-10-03T05:40:20.293Z,2.00
2022-10-03T05:41:25.158Z,2.20
2022-10-03T05:42:23.720Z,2.20
2022-10-03T05:43:21.140Z,2.60
2022-10-03T05:44:20.234Z,2.10
2022-10-03T05:45:20.308Z,2.30
2022-10-03T05:46:21.236Z,1.90
2022-10-03T05:47:20.230Z,2.70
2022-10-03T05:48:20.201Z,2.20
2022-10-03T05:49:20.182Z,2.40
2022-10-03T05:50:20.176Z,2.30
2022-10-03T05:51:20.158Z,2.00
2022-10-03T05:52:20.143Z,2.10
2022-10-03T05:53:20.183Z,2.20
2022-10-03T05:54:20.150Z,2.40
2022-10-03T05:55:20.114Z,2.10
2022-10-03T05:56:20.104Z,2.00
2022-10-03T05:57:20.086Z,2.10
2022-10-03T05:58:20.084Z,2.20
2022-10-03T05:59:20.170Z,2.10
2022-10-03T06:00:20.070Z,2.10
2022-10-03T06:01:20.039Z,1.90
2022-10-03T06:02:20.776Z,2.10
2022-10-03T06:03:20.111Z,2.00
2022-10-03T06:04:20.027Z,1.90
2022-10-03T06:05:19.997Z,2.10
2022-10-03T06:06:20.053Z,2.10
2022-10-03T06:07:20.038Z,2.50
2022-10-03T06:08:20.001Z,2.10
2022-10-03T06:09:19.953Z,2.00
2022-10-03T06:10:19.966Z,2.20
2022-10-03T06:11:19.932Z,2.20
2022-10-03T06:12:19.999Z,1.90
2022-10-03T06:13:19.932Z,2.00
2022-10-03T06:14:19.912Z,2.10
2022-10-03T06:15:19.897Z,1.90
2022-10-03T06:16:19.975Z,2.20
2022-10-03T06:17:19.920Z,2.20
2022-10-03T06:18:19.882Z,2.90
2022-10-03T06:19:19.952Z,1.80
2022-10-03T06:20:19.842Z,2.00
2022-10-03T06:21:19.810Z,2.40
2022-10-03T06:22:19.817Z,2.00
2022-10-03T06:23:19.810Z,2.30
2022-10-03T06:24:20.635Z,2.20
2022-10-03T06:25:19.820Z,2.40
2022-10-03T06:26:19.812Z,2.80
2022-10-03T06:27:19.781Z,2.10
2022-10-03T06:28:19.906Z,2.40
2022-10-03T06:29:19.734Z,2.20
2022-10-03T06:30:20.625Z,2.30
2022-10-03T06:31:19.754Z,2.10
2022-10-03T06:32:19.722Z,2.20
2022-10-03T06:33:20.634Z,2.40
2022-10-03T06:34:19.660Z,2.60
2022-10-03T06:35:20.638Z,2.60
2022-10-03T06:36:19.710Z,2.50
2022-10-03T06:37:19.677Z,2.20
2022-10-03T06:38:20.625Z,2.50
2022-10-03T06:39:19.622Z,2.30
2022-10-03T06:40:20.112Z,2.30
2022-10-03T06:41:19.627Z,2.30
2022-10-03T06:42:19.599Z,2.50
2022-10-03T06:43:20.215Z,2.10
2022-10-03T06:44:20.169Z,2.60
2022-10-03T06:45:19.564Z,2.20
2022-10-03T06:46:19.573Z,2.70
2022-10-03T06:47:19.551Z,2.20
2022-10-03T06:48:19.521Z,2.60
2022-10-03T06:49:19.499Z,2.70
2022-10-03T06:50:19.499Z,2.10
2022-10-03T06:51:19.497Z,2.40
2022-10-03T06:52:19.502Z,2.40
2022-10-03T06:53:20.182Z,2.80
2022-10-03T06:54:19.468Z,2.70
2022-10-03T06:55:19.435Z,2.60
2022-10-03T06:56:19.413Z,2.80
2022-10-03T06:57:19.410Z,2.50
2022-10-03T06:58:19.390Z,2.90
2022-10-03T06:59:19.381Z,2.20
2022-10-03T07:00:19.393Z,2.70
2022-10-03T07:01:20.148Z,2.90
2022-10-03T07:02:19.451Z,2.70
2022-10-03T07:03:19.346Z,2.50
2022-10-03T07:04:19.323Z,2.70
2022-10-03T07:05:19.335Z,2.60
2022-10-03T07:06:19.326Z,2.50
2022-10-03T07:07:19.348Z,2.40
2022-10-03T07:08:19.638Z,3.00
2022-10-03T07:09:19.292Z,2.90
2022-10-03T07:10:19.271Z,2.80
2022-10-03T07:11:19.276Z,3.10
2022-10-03T07:12:19.238Z,3.30
2022-10-03T07:13:19.638Z,3.60
2022-10-03T07:14:19.210Z,3.10
2022-10-03T07:15:19.207Z,3.40
2022-10-03T07:16:26.992Z,3.10
2022-10-03T07:17:20.296Z,3.20
2022-10-03T07:18:19.164Z,3.20
2022-10-03T07:19:19.145Z,3.20
2022-10-03T07:20:20.130Z,3.10
2022-10-03T07:21:19.154Z,2.90
2022-10-03T07:22:19.143Z,3.70
2022-10-03T07:23:19.263Z,2.70
2022-10-03T07:24:19.118Z,3.30
2022-10-03T07:25:19.084Z,2.80
2022-10-03T07:26:19.078Z,3.20
2022-10-03T07:27:19.091Z,2.70
2022-10-03T07:28:20.670Z,2.80
2022-10-03T07:29:19.080Z,2.90
2022-10-03T07:30:19.031Z,2.90
2022-10-03T07:31:19.703Z,2.80
2022-10-03T07:32:19.016Z,2.70
2022-10-03T07:33:19.000Z,3.00
2022-10-03T07:34:18.995Z,3.20
2022-10-03T07:35:18.992Z,3.10
2022-10-03T07:36:19.635Z,2.80
2022-10-03T07:37:18.968Z,2.90
2022-10-03T07:38:18.960Z,2.70
2022-10-03T07:39:19.001Z,2.60
2022-10-03T07:40:18.940Z,2.60
2022-10-03T07:41:18.902Z,2.30
2022-10-03T07:42:18.897Z,2.50
2022-10-03T07:43:19.620Z,3.00
2022-10-03T07:44:18.874Z,2.30
2022-10-03T07:45:18.870Z,2.70
2022-10-03T07:46:18.901Z,2.30
2022-10-03T07:47:18.879Z,2.40
2022-10-03T07:48:18.844Z,2.70
2022-10-03T07:49:18.901Z,2.90
2022-10-03T07:50:18.811Z,2.60
2022-10-03T07:51:18.810Z,2.40
2022-10-03T07:52:18.784Z,2.70
2022-10-03T07:53:18.782Z,2.60
2022-10-03T07:54:18.753Z,2.70
2022-10-03T07:55:18.784Z,2.70
2022-10-03T07:56:18.734Z,2.80
2022-10-03T07:57:18.727Z,2.70
2022-10-03T07:58:18.718Z,3.10
2022-10-03T07:59:19.612Z,2.40
2022-10-03T08:00:18.702Z,2.80
2022-10-03T08:01:18.695Z,2.80
2022-10-03T08:02:18.710Z,2.70
2022-10-03T08:03:18.753Z,2.70
2022-10-03T08:04:18.693Z,2.50
2022-10-03T08:05:18.632Z,2.60
2022-10-03T08:06:18.674Z,2.90
2022-10-03T08:07:18.597Z,2.60
2022-10-03T08:08:18.599Z,2.70
2022-10-03T08:09:18.600Z,2.70
2022-10-03T08:10:20.133Z,2.70
2022-10-03T08:11:18.764Z,2.40
2022-10-03T08:12:18.609Z,2.60
2022-10-03T08:13:18.590Z,2.40
2022-10-03T08:14:18.537Z,2.90
2022-10-03T08:15:18.513Z,2.60
2022-10-03T08:16:18.611Z,2.60
2022-10-03T08:17:18.499Z,2.80
2022-10-03T08:18:18.479Z,2.70
2022-10-03T08:19:18.521Z,3.30
2022-10-03T08:20:18.480Z,2.60
2022-10-03T08:21:18.436Z,2.20
2022-10-03T08:22:18.443Z,2.80
2022-10-03T08:23:18.482Z,3.00
2022-10-03T08:24:18.427Z,2.90
2022-10-03T08:25:18.417Z,2.40
2022-10-03T08:26:18.382Z,2.90
2022-10-03T08:27:18.405Z,2.50
2022-10-03T08:28:18.465Z,2.70
2022-10-03T08:29:18.370Z,2.20
2022-10-03T08:30:18.359Z,2.60
2022-10-03T08:31:18.389Z,2.80
2022-10-03T08:32:18.328Z,2.40
2022-10-03T08:33:18.345Z,2.70
2022-10-03T08:34:18.309Z,2.60
2022-10-03T08:35:18.304Z,2.50
2022-10-03T08:36:18.288Z,2.20
2022-10-03T08:37:18.302Z,2.70
2022-10-03T08:38:18.271Z,2.50
2022-10-03T08:39:19.122Z,2.40
2022-10-03T08:40:18.241Z,2.40
2022-10-03T08:41:18.227Z,2.40
2022-10-03T08:42:18.208Z,2.40
2022-10-03T08:43:18.246Z,2.20
2022-10-03T08:44:18.187Z,2.30
2022-10-03T08:45:19.122Z,2.90
2022-10-03T08:46:18.218Z,2.20
2022-10-03T08:47:18.181Z,2.70
2022-10-03T08:48:18.147Z,2.20
2022-10-03T08:49:18.178Z,2.90
2022-10-03T08:50:21.113Z,2.40
2022-10-03T08:51:18.115Z,2.20
2022-10-03T08:52:18.135Z,2.80
2022-10-03T08:53:18.096Z,2.90
2022-10-03T08:54:18.077Z,2.70
2022-10-03T08:55:18.088Z,2.40
2022-10-03T08:56:18.057Z,2.50
2022-10-03T08:57:18.073Z,2.20
2022-10-03T08:58:18.043Z,2.40
2022-10-03T08:59:18.043Z,2.60
2022-10-03T09:00:18.024Z,2.30
2022-10-03T09:01:18.097Z,2.20
2022-10-03T09:02:18.180Z,2.20
2022-10-03T09:03:33.458Z,2.40
2022-10-03T09:04:18.961Z,2.50
2022-10-03T09:05:17.961Z,2.20
2022-10-03T09:06:17.963Z,2.40
2022-10-03T09:07:19.437Z,2.10
2022-10-03T09:08:17.962Z,2.40
2022-10-03T09:09:17.936Z,2.80
2022-10-03T09:10:18.680Z,2.30
2022-10-03T09:11:17.884Z,2.00
2022-10-03T09:12:17.885Z,2.30
2022-10-03T09:13:17.858Z,2.10
2022-10-03T09:14:17.871Z,2.30
2022-10-03T09:15:17.866Z,2.70
2022-10-03T09:16:18.882Z,1.90
2022-10-03T09:17:17.831Z,2.50
2022-10-03T09:18:17.810Z,2.40
2022-10-03T09:19:17.818Z,1.90
2022-10-03T09:20:17.840Z,2.70
2022-10-03T09:21:17.783Z,2.60
2022-10-03T09:22:17.762Z,2.10
2022-10-03T09:23:17.751Z,2.20
2022-10-03T09:24:17.746Z,2.30
2022-10-03T09:25:17.771Z,2.20
2022-10-03T09:26:17.724Z,2.30
2022-10-03T09:27:17.706Z,2.60
2022-10-03T09:28:19.203Z,2.10
2022-10-03T09:29:18.614Z,2.40
2022-10-03T09:30:17.789Z,2.20
2022-10-03T09:31:17.775Z,2.10
2022-10-03T09:32:17.648Z,2.50
2022-10-03T09:33:17.663Z,2.40
2022-10-03T09:34:17.633Z,2.30
2022-10-03T09:35:17.665Z,1.90
2022-10-03T09:36:17.615Z,2.10
2022-10-03T09:37:17.597Z,2.30
2022-10-03T09:38:17.651Z,2.00
2022-10-03T09:39:18.119Z,2.30
2022-10-03T09:40:17.579Z,1.80
2022-10-03T09:41:17.562Z,2.00
2022-10-03T09:42:17.530Z,2.30
2022-10-03T09:43:17.571Z,1.90
2022-10-03T09:44:17.543Z,2.00
2022-10-03T09:45:17.539Z,1.90
2022-10-03T09:46:17.543Z,1.80
2022-10-03T09:47:17.616Z,2.30
2022-10-03T09:48:17.516Z,2.10
2022-10-03T09:49:17.453Z,2.80
2022-10-03T09:50:17.464Z,2.40
2022-10-03T09:51:17.441Z,2.30
2022-10-03T09:52:17.418Z,1.60
2022-10-03T09:53:18.132Z,1.70
2022-10-03T09:54:17.418Z,2.00
2022-10-03T09:55:17.386Z,1.70
2022-10-03T09:56:17.378Z,2.20
2022-10-03T09:57:20.855Z,1.70
2022-10-03T09:58:18.348Z,2.00
2022-10-03T09:59:17.363Z,1.40
2022-10-03T10:00:17.389Z,1.50
2022-10-03T10:01:17.411Z,2.30
2022-10-03T10:02:17.320Z,1.70
2022-10-03T10:03:17.319Z,2.00
2022-10-03T10:04:28.268Z,2.30
2022-10-03T10:05:18.293Z,1.80
2022-10-03T10:06:19.594Z,1.80
2022-10-03T10:07:18.206Z,1.70
2022-10-03T10:08:17.252Z,2.00
2022-10-03T10:09:17.238Z,2.10
2022-10-03T10:10:17.209Z,1.80
2022-10-03T10:11:17.207Z,1.50
2022-10-03T10:12:17.204Z,2.10
2022-10-03T10:13:17.208Z,1.80
2022-10-03T10:14:17.251Z,1.30
2022-10-03T10:15:17.175Z,2.00
2022-10-03T10:16:17.167Z,1.70
2022-10-03T10:17:17.192Z,1.60
2022-10-03T10:18:17.140Z,1.60
2022-10-03T10:19:17.648Z,1.90
2022-10-03T10:20:17.149Z,1.80
2022-10-03T10:21:18.672Z,1.80
2022-10-03T10:22:17.134Z,1.60
2022-10-03T10:23:17.088Z,2.00
2022-10-03T10:24:17.057Z,2.00
2022-10-03T10:25:17.108Z,1.60
2022-10-03T10:26:17.056Z,1.60
2022-10-03T10:27:17.033Z,1.70
2022-10-03T10:28:17.148Z,2.00
2022-10-03T10:29:17.004Z,1.70
2022-10-03T10:30:16.991Z,1.60
2022-10-03T10:31:17.044Z,1.60
2022-10-03T10:32:21.391Z,2.00
2022-10-03T10:33:16.963Z,1.90
2022-10-03T10:34:16.949Z,1.50
2022-10-03T10:35:17.661Z,1.70
2022-10-03T10:36:16.942Z,1.60
2022-10-03T10:37:16.936Z,1.10
2022-10-03T10:38:16.903Z,1.20
2022-10-03T10:39:16.952Z,1.40
2022-10-03T10:40:16.881Z,1.00
2022-10-03T10:41:16.905Z,1.40
2022-10-03T10:42:16.872Z,1.70
2022-10-03T10:43:16.862Z,2.20
2022-10-03T10:44:16.828Z,1.40
2022-10-03T10:45:16.818Z,1.50
2022-10-03T10:46:16.849Z,1.20
2022-10-03T10:47:16.822Z,1.30
2022-10-03T10:48:17.618Z,1.20
2022-10-03T10:49:16.816Z,1.50
2022-10-03T10:50:17.637Z,1.70
2022-10-03T10:51:17.648Z,1.40
2022-10-03T10:52:16.765Z,1.40
2022-10-03T10:53:17.644Z,1.30
2022-10-03T10:54:16.722Z,1.20
2022-10-03T10:55:16.724Z,1.30
2022-10-03T10:56:16.725Z,1.40
2022-10-03T10:57:16.687Z,1.20
2022-10-03T10:58:17.643Z,1.30
2022-10-03T10:59:16.666Z,1.40
2022-10-03T11:00:16.696Z,1.40
2022-10-03T11:01:16.700Z,1.20
2022-10-03T11:02:16.632Z,1.00
2022-10-03T11:03:18.150Z,1.60
2022-10-03T11:04:16.677Z,0.80
2022-10-03T11:05:16.632Z,1.20
2022-10-03T11:06:17.121Z,1.30
2022-10-03T11:07:16.609Z,0.90
2022-10-03T11:08:16.562Z,1.60
2022-10-03T11:09:16.609Z,1.00
2022-10-03T11:10:16.567Z,1.30
2022-10-03T11:11:16.539Z,1.10
2022-10-03T11:12:16.519Z,1.00
2022-10-03T11:13:16.545Z,1.20
2022-10-03T11:14:16.510Z,0.60
2022-10-03T11:15:16.514Z,1.10
2022-10-03T11:16:16.554Z,0.60
2022-10-03T11:17:16.488Z,0.90
2022-10-03T11:18:16.453Z,0.80
2022-10-03T11:19:16.461Z,0.80
2022-10-03T11:20:16.471Z,0.70
2022-10-03T11:21:16.422Z,0.90
2022-10-03T11:22:16.472Z,0.70
2022-10-03T11:23:16.413Z,1.00
2022-10-03T11:24:16.431Z,1.00
2022-10-03T11:25:16.392Z,1.00
2022-10-03T11:26:16.374Z,1.10
2022-10-03T11:27:16.347Z,1.20
2022-10-03T11:28:18.854Z,1.00
2022-10-03T11:29:16.384Z,0.70
2022-10-03T11:30:16.323Z,1.20
2022-10-03T11:31:17.175Z,1.00
2022-10-03T11:32:16.295Z,1.40
2022-10-03T11:33:16.315Z,1.40
2022-10-03T11:34:16.302Z,1.10
2022-10-03T11:35:16.283Z,1.40
2022-10-03T11:36:16.257Z,1.00
2022-10-03T11:37:16.267Z,1.10
2022-10-03T11:38:16.258Z,1.20
2022-10-03T11:39:16.261Z,1.30
2022-10-03T11:40:16.239Z,1.20
2022-10-03T11:41:16.191Z,1.20
2022-10-03T11:42:16.213Z,1.30
2022-10-03T11:43:16.221Z,1.00
2022-10-03T11:44:16.183Z,1.10
2022-10-03T11:45:16.159Z,1.20
2022-10-03T11:46:16.187Z,1.00
2022-10-03T11:47:16.202Z,1.40
2022-10-03T11:48:16.152Z,0.90
2022-10-03T11:49:16.141Z,1.40
2022-10-03T11:50:16.116Z,0.90
2022-10-03T11:51:16.092Z,1.20
2022-10-03T11:52:16.137Z,0.70
2022-10-03T11:53:16.091Z,1.10
2022-10-03T11:54:30.614Z,1.40
2022-10-03T11:55:17.076Z,1.00
2022-10-03T11:56:18.677Z,1.60
2022-10-03T11:57:16.654Z,1.10
2022-10-03T11:58:16.026Z,0.90
2022-10-03T11:59:15.999Z,1.00
2022-10-03T12:00:16.001Z,1.00
2022-10-03T12:01:16.042Z,1.10
2022-10-03T12:02:16.675Z,1.20
2022-10-03T12:03:16.124Z,0.90
2022-10-03T12:04:15.946Z,1.00
2022-10-03T12:05:15.941Z,1.20
2022-10-03T12:06:15.967Z,1.10
2022-10-03T12:07:17.657Z,1.30
2022-10-03T12:08:15.905Z,1.30
2022-10-03T12:09:15.907Z,1.10
2022-10-03T12:10:15.875Z,1.10
2022-10-03T12:11:15.910Z,1.10
2022-10-03T12:12:15.897Z,1.20
2022-10-03T12:13:16.690Z,1.10
2022-10-03T12:14:15.830Z,1.10
2022-10-03T12:15:15.859Z,0.90
2022-10-03T12:16:16.783Z,1.20
2022-10-03T12:17:15.861Z,0.90
2022-10-03T12:18:15.800Z,1.50
2022-10-03T12:19:15.789Z,1.00
2022-10-03T12:20:15.759Z,1.10
2022-10-03T12:21:21.607Z,1.10
2022-10-03T12:22:16.804Z,1.00
2022-10-03T12:23:15.734Z,1.20
2022-10-03T12:24:15.792Z,1.10
2022-10-03T12:25:15.759Z,1.40
2022-10-03T12:26:15.710Z,1.20
2022-10-03T12:27:15.721Z,1.30
2022-10-03T12:28:16.730Z,1.10
2022-10-03T12:29:15.669Z,1.10
2022-10-03T12:30:15.705Z,1.10
2022-10-03T12:31:18.928Z,1.20
2022-10-03T12:32:15.732Z,1.40
2022-10-03T12:33:15.618Z,1.20
2022-10-03T12:34:15.612Z,1.50
2022-10-03T12:35:15.637Z,1.00
2022-10-03T12:36:16.140Z,1.20
2022-10-03T12:37:15.581Z,1.30
2022-10-03T12:38:15.576Z,1.20
2022-10-03T12:39:15.642Z,1.20
2022-10-03T12:40:15.574Z,1.00
2022-10-03T12:41:15.538Z,1.00
2022-10-03T12:42:16.127Z,1.00
2022-10-03T12:43:17.185Z,1.30
2022-10-03T12:44:15.571Z,1.10
2022-10-03T12:45:15.511Z,1.10
2022-10-03T12:46:15.583Z,1.00
2022-10-03T12:47:24.266Z,1.30
2022-10-03T12:48:17.138Z,1.40
2022-10-03T12:49:15.457Z,1.30
2022-10-03T12:50:15.473Z,1.20
2022-10-03T12:51:15.441Z,1.50
2022-10-03T12:52:17.158Z,1.30
2022-10-03T12:53:15.467Z,1.30
2022-10-03T12:54:15.440Z,1.20
2022-10-03T12:55:15.415Z,1.60
2022-10-03T12:56:15.392Z,1.30
2022-10-03T12:57:15.397Z,1.00
2022-10-03T12:58:15.360Z,1.20
2022-10-03T12:59:15.377Z,1.30
2022-10-03T13:00:16.154Z,1.30
2022-10-03T13:01:15.358Z,1.10
2022-10-03T13:02:15.417Z,1.10
2022-10-03T13:03:15.328Z,1.50
2022-10-03T13:04:18.192Z,1.30
2022-10-03T13:05:16.129Z,1.20
2022-10-03T13:06:15.304Z,1.40
2022-10-03T13:07:15.281Z,1.10
2022-10-03T13:08:15.243Z,1.20
2022-10-03T13:09:17.166Z,1.30
2022-10-03T13:10:15.210Z,1.10
2022-10-03T13:11:15.205Z,1.40
2022-10-03T13:12:15.190Z,1.20
2022-10-03T13:13:15.198Z,1.10
2022-10-03T13:14:15.219Z,1.10
2022-10-03T13:15:15.321Z,1.00
2022-10-03T13:16:15.200Z,1.00
2022-10-03T13:17:15.184Z,0.90
2022-10-03T13:18:15.158Z,1.10